Little Fort, Canada
Current Conditions -  °F | °C
As of 10:00 PM on Wednesday 26 Nov 2014 (Local Time) from CYKA Reporting Station
Overcast Overcast  
Wind Chill: -3°   Ceiling: 2800
Heat Index:   Visibility: 30mi
Dew Point:   Wind: 13mph
Humidity: 87%   Direction: 100°E
Pressure: 29.83"   Gusts: 18mph
Location:  51.43°N, 120.2°W
Report Text: CYKA 270600Z 10011G16KT 30SM SCT018 BKN028 OVC090 02/00 A2983 RMK SC4SC2AC2 SLP115
Loading
Personal Weather Stations






























Interactive Weather Map New forecast layout! Learn more

10-Day Weather Forecast

Advertisements
Track Severe Weather on mobile